Terminal Aerodrome Forecast
Issued by NWS

Home | Current Version | Previous Version | Text Only | Print | Product List | Glossary On
Versions: 1 2 3 4 5 6 7 8 9 10 11 12 13 14 15
501
FTUS43 KGRR 221159 AAA
TAFMKG
TAF AMD
KMKG 221159Z 2212/2312 13005KT P6SM VCSH OVC012
      TEMPO 2212/2214 OVC009
     FM221600 29007KT P6SM OVC025
     FM221900 31008KT P6SM BKN035
     FM230000 34003KT P6SM SCT040
     FM230800 28003KT 5SM BR VCSH BKN040=

USA.gov is the U.S. government's official web portal to all federal, state and local government web resources and services.